Pagrindinis puslapis
METAR-TAF:

METAR-TAF

Oro uostai :

Džengdžou, Kinija

platuma: 34-43N, ilguma: 113-39E, Aukštis: 111 m

Dabartinis oras

Ataskaita buvo paskelbta 39 minutes, ne 21:00 UTC
Vėjas 2 kt iš Pietų
Temperatūra 1°C
Drėgmė 69%
Slėgis 1024 hPa
Matomumas: 5000 m
migla

METAR: ZHCC 262100Z 19001MPS 5000 HZ NSC 01/M04 Q1024 NOSIG

Laikas: 05:39 (21:39 UTC)

Prognozė

Ataskaita buvo paskelbta 6 valandos ir 34 minutes, ne 15:05 UTC
Prognozė galioja nuo 26 metu 18 UTC su 27 metu 18 UTC
Vėjas 6 kt iš Pietų/Pietryčių
Matomumas: 5000 m
migla

TAF: ZHCC 261505Z 2618/2718 15003MPS 5000 HZ NSC TX10/2707Z TN00/2622Z

Orai ataskaitas ir orų prognozės (METAR, TAF).

turimą stotys yra geltonos ir raudonos taškus žemėlapyje.

Perkelti pele per norėdami pamatyti stoties vardą.

Tada spustelėkite, norėdami matyti oro stebėjimo ir prognozės.

Norėdami pakeisti žemėlapį: spustelėkite ant žalios mygtukų su juodo kryžiaus žemyn,; žalią mygtuką su brūkšneliu, jei norite nutolinti; arba žalių rodyklių gretimoms žemėlapius.


METAR-TAF: